createdAt,value
2018-08-13T00:01:56.024Z,7.05
2018-08-13T00:04:25.523Z,10.48
2018-08-13T00:06:55.197Z,7.15
2018-08-13T00:09:29.702Z,7.42
2018-08-13T00:11:58.557Z,7.65
2018-08-13T00:14:27.720Z,6.10
2018-08-13T00:16:56.565Z,8.15
2018-08-13T00:19:25.730Z,6.35
2018-08-13T00:21:54.589Z,6.42
2018-08-13T00:24:23.424Z,7.97
2018-08-13T00:26:52.513Z,6.62
2018-08-13T00:29:21.380Z,7.10
2018-08-13T00:31:50.231Z,7.05
2018-08-13T00:34:19.085Z,6.40
2018-08-13T00:36:47.911Z,7.37
2018-08-13T00:39:16.728Z,6.72
2018-08-13T00:41:45.589Z,10.00
2018-08-13T00:44:14.447Z,5.08
2018-08-13T00:46:43.317Z,7.87
2018-08-13T00:49:13.796Z,6.62
2018-08-13T00:51:42.616Z,7.08
2018-08-13T00:54:11.490Z,6.75
2018-08-13T00:56:40.314Z,6.17
2018-08-13T00:59:09.148Z,8.03
2018-08-13T01:01:38.093Z,6.28
2018-08-13T01:04:07.288Z,7.75
2018-08-13T01:06:36.130Z,6.42
2018-08-13T01:09:07.600Z,6.62
2018-08-13T01:11:36.652Z,8.05
2018-08-13T01:14:05.748Z,6.12
2018-08-13T01:16:34.555Z,7.22
2018-08-13T01:19:03.440Z,8.43
2018-08-13T01:21:32.331Z,6.80
2018-08-13T01:24:01.148Z,8.53
2018-08-13T01:26:30.322Z,7.78
2018-08-13T01:28:59.191Z,7.92
2018-08-13T01:31:28.043Z,8.25
2018-08-13T01:33:56.876Z,8.30
2018-08-13T01:36:25.772Z,9.90
2018-08-13T01:38:54.866Z,8.65
2018-08-13T01:41:23.736Z,8.03
2018-08-13T01:43:52.589Z,9.38
2018-08-13T01:46:22.013Z,8.25
2018-08-13T01:48:50.991Z,9.10
2018-08-13T01:51:19.827Z,7.60
2018-08-13T01:53:48.890Z,8.53
2018-08-13T01:56:17.974Z,8.28
2018-08-13T01:58:46.806Z,9.08
2018-08-13T02:01:15.671Z,7.62
2018-08-13T02:03:44.884Z,8.70
2018-08-13T02:06:13.735Z,10.10
2018-08-13T02:08:43.211Z,8.18
2018-08-13T02:11:12.587Z,8.85
2018-08-13T02:13:41.477Z,6.80
2018-08-13T02:16:10.331Z,7.97
2018-08-13T02:18:39.134Z,9.15
2018-08-13T02:21:07.970Z,7.90
2018-08-13T02:23:36.822Z,8.90
2018-08-13T02:26:05.638Z,7.78
2018-08-13T02:28:34.517Z,9.05
2018-08-13T02:31:03.935Z,9.28
2018-08-13T02:33:38.764Z,8.75
2018-08-13T02:36:07.581Z,8.83
2018-08-13T02:38:36.543Z,7.97
2018-08-13T02:41:05.401Z,7.58
2018-08-13T02:43:34.228Z,7.42
2018-08-13T02:46:03.089Z,8.95
2018-08-13T02:48:32.112Z,8.68
2018-08-13T02:51:00.949Z,7.83
2018-08-13T02:53:30.095Z,11.15
2018-08-13T02:56:05.298Z,9.53
2018-08-13T02:58:34.139Z,8.70
2018-08-13T03:01:03.338Z,8.73
2018-08-13T03:03:32.769Z,9.40
2018-08-13T03:06:02.140Z,11.43
2018-08-13T03:08:31.029Z,8.18
2018-08-13T03:10:59.905Z,9.58
2018-08-13T03:13:28.747Z,10.18
2018-08-13T03:15:57.784Z,10.32
2018-08-13T03:18:32.912Z,9.73
2018-08-13T03:21:02.041Z,9.45
2018-08-13T03:23:30.919Z,10.93
2018-08-13T03:25:59.847Z,11.03
2018-08-13T03:28:29.005Z,9.63
2018-08-13T03:30:57.863Z,9.38
2018-08-13T03:33:26.735Z,9.50
2018-08-13T03:35:55.810Z,12.18
2018-08-13T03:38:24.967Z,12.03
2018-08-13T03:40:53.823Z,10.32
2018-08-13T03:43:23.090Z,10.75
2018-08-13T03:45:51.947Z,10.98
2018-08-13T03:48:20.885Z,8.28
2018-08-13T03:50:50.050Z,11.08
2018-08-13T03:53:19.340Z,9.60
2018-08-13T03:55:48.201Z,12.53
2018-08-13T04:01:16.776Z,10.10
2018-08-13T04:03:45.854Z,9.10
2018-08-13T04:06:14.759Z,9.65
2018-08-13T04:08:43.634Z,9.58
2018-08-13T04:11:12.490Z,10.15
2018-08-13T04:13:41.388Z,10.72
2018-08-13T04:16:10.821Z,10.15
2018-08-13T04:18:39.671Z,10.70
2018-08-13T04:21:08.517Z,10.38
2018-08-13T04:23:37.607Z,10.18
2018-08-13T04:26:06.430Z,10.68
2018-08-13T04:28:36.987Z,10.88
2018-08-13T04:31:06.073Z,11.30
2018-08-13T04:33:34.899Z,9.85
2018-08-13T04:36:03.739Z,10.82
2018-08-13T04:38:32.570Z,11.30
2018-08-13T04:41:01.618Z,9.85
2018-08-13T04:43:30.796Z,10.90
2018-08-13T04:45:59.879Z,10.35
2018-08-13T04:48:28.926Z,9.43
2018-08-13T04:50:57.821Z,11.15
2018-08-13T04:53:26.707Z,10.10
2018-08-13T04:55:55.633Z,10.25
2018-08-13T04:58:28.280Z,11.22
2018-08-13T05:00:56.636Z,13.10
2018-08-13T05:03:25.469Z,10.75
2018-08-13T05:05:54.641Z,11.65
2018-08-13T05:08:23.763Z,11.22
2018-08-13T05:10:52.602Z,11.48
2018-08-13T05:13:21.450Z,12.60
2018-08-13T05:15:50.292Z,11.55
2018-08-13T05:18:19.114Z,11.95
2018-08-13T05:20:47.970Z,11.88
2018-08-13T05:23:17.734Z,11.40
2018-08-13T05:25:46.954Z,13.68
2018-08-13T05:28:15.801Z,11.68
2018-08-13T05:30:44.964Z,11.45
2018-08-13T05:33:13.853Z,11.35
2018-08-13T05:35:42.704Z,12.15
2018-08-13T05:38:11.549Z,11.78
2018-08-13T05:40:40.541Z,12.23
2018-08-13T05:43:09.718Z,13.15
2018-08-13T05:45:38.602Z,13.08
2018-08-13T05:48:07.456Z,11.80
2018-08-13T05:50:36.312Z,12.05
2018-08-13T05:53:05.189Z,11.12
2018-08-13T05:55:34.217Z,11.10
2018-08-13T05:58:03.375Z,12.23
2018-08-13T06:00:32.253Z,12.47
2018-08-13T06:03:00.782Z,13.87
2018-08-13T06:05:29.624Z,12.98
2018-08-13T06:07:58.740Z,10.50
2018-08-13T06:10:27.555Z,11.50
2018-08-13T06:12:56.390Z,12.60
2018-08-13T06:15:25.271Z,14.03
2018-08-13T06:17:54.351Z,11.28
2018-08-13T06:20:23.190Z,13.65
2018-08-13T06:22:52.069Z,12.35
2018-08-13T06:25:20.913Z,12.75
2018-08-13T06:27:49.791Z,11.95
2018-08-13T06:30:18.643Z,11.53
2018-08-13T06:32:47.482Z,10.48
2018-08-13T06:35:16.310Z,12.35
2018-08-13T06:37:45.308Z,10.08
2018-08-13T06:40:14.233Z,12.65
2018-08-13T06:42:43.402Z,10.40
2018-08-13T06:45:12.247Z,11.53
2018-08-13T06:47:41.573Z,11.05
2018-08-13T06:50:12.522Z,9.58
2018-08-13T06:52:41.420Z,12.85
2018-08-13T06:55:10.630Z,12.78
2018-08-13T06:57:39.457Z,11.63
2018-08-13T07:00:13.404Z,10.20
2018-08-13T07:02:42.319Z,11.07
2018-08-13T07:05:11.624Z,10.60
2018-08-13T07:07:41.047Z,13.90
2018-08-13T07:10:11.188Z,10.70
2018-08-13T07:12:41.790Z,11.53
2018-08-13T07:15:11.075Z,12.65
2018-08-13T07:17:40.343Z,11.53
2018-08-13T07:20:11.521Z,10.13
2018-08-13T07:22:40.361Z,10.80
2018-08-13T07:25:10.096Z,10.58
2018-08-13T07:27:39.737Z,10.30
2018-08-13T07:30:11.584Z,13.22
2018-08-13T07:32:40.921Z,12.90
2018-08-13T07:35:09.918Z,10.68
2018-08-13T07:37:38.754Z,12.90
2018-08-13T07:40:10.708Z,11.05
2018-08-13T07:42:39.888Z,11.45
2018-08-13T07:45:09.174Z,12.13
2018-08-13T07:47:38.342Z,10.32
2018-08-13T07:50:09.152Z,9.43
2018-08-13T07:52:38.004Z,10.10
2018-08-13T07:55:07.056Z,8.83
2018-08-13T07:57:36.302Z,11.05
2018-08-13T08:00:07.048Z,12.30
2018-08-13T08:02:36.083Z,9.67
2018-08-13T08:05:05.807Z,10.75
2018-08-13T08:07:35.151Z,8.65
2018-08-13T08:10:05.683Z,8.80
2018-08-13T08:12:34.786Z,8.35
2018-08-13T08:15:04.513Z,8.03
2018-08-13T08:17:33.413Z,7.30
2018-08-13T08:20:02.571Z,8.53
2018-08-13T08:22:31.451Z,7.58
2018-08-13T08:25:00.897Z,7.95
2018-08-13T08:27:29.767Z,8.18
2018-08-13T08:29:58.607Z,8.23
2018-08-13T08:32:27.440Z,8.93
2018-08-13T08:34:56.330Z,7.30
2018-08-13T08:37:25.175Z,9.33
2018-08-13T08:39:54.006Z,8.78
2018-08-13T08:42:22.856Z,6.10
2018-08-13T08:44:51.732Z,6.80
2018-08-13T08:47:20.558Z,4.80
2018-08-13T08:49:49.458Z,8.53
2018-08-13T08:52:18.279Z,7.10
2018-08-13T08:54:47.163Z,7.00
2018-08-13T08:57:16.337Z,6.15
2018-08-13T08:59:45.209Z,8.05
2018-08-13T09:02:13.794Z,6.63
2018-08-13T09:04:42.857Z,6.37
2018-08-13T09:07:11.714Z,4.90
2018-08-13T09:09:40.553Z,4.85
2018-08-13T09:12:09.632Z,4.03
2018-08-13T09:14:38.468Z,6.55
2018-08-13T09:17:07.631Z,4.30
2018-08-13T09:19:47.689Z,3.80
2018-08-13T09:22:28.044Z,5.47
2018-08-13T09:25:08.192Z,5.45
2018-08-13T09:27:48.459Z,3.67
2018-08-13T09:30:28.611Z,5.20
2018-08-13T09:33:08.929Z,4.60
2018-08-13T09:35:37.958Z,5.47
2018-08-13T09:38:06.815Z,5.05
2018-08-13T09:40:35.669Z,4.67
2018-08-13T09:43:04.901Z,4.35
2018-08-13T09:45:34.104Z,3.98
2018-08-13T09:48:03.027Z,4.53
2018-08-13T09:50:32.034Z,6.67
2018-08-13T09:53:00.888Z,5.28
2018-08-13T09:55:30.052Z,5.87
2018-08-13T09:57:58.956Z,5.72
2018-08-13T10:00:33.463Z,6.62
2018-08-13T10:03:02.016Z,7.57
2018-08-13T10:05:30.876Z,6.08
2018-08-13T10:07:59.741Z,9.25
2018-08-13T10:10:28.626Z,6.58
2018-08-13T10:12:57.782Z,6.40
2018-08-13T10:15:26.748Z,6.62
2018-08-13T10:17:55.617Z,8.55
2018-08-13T10:20:24.597Z,6.85
2018-08-13T10:22:53.484Z,6.37
2018-08-13T10:25:22.327Z,6.58
2018-08-13T10:27:51.171Z,8.60
2018-08-13T10:30:20.021Z,5.40
2018-08-13T10:32:48.858Z,6.12
2018-08-13T10:35:17.753Z,5.58
2018-08-13T10:37:46.954Z,3.80
2018-08-13T10:40:17.815Z,5.33
2018-08-13T10:42:47.417Z,5.50
2018-08-13T10:45:16.539Z,4.83
2018-08-13T10:47:45.989Z,4.65
2018-08-13T10:50:15.205Z,3.85
2018-08-13T10:52:44.081Z,4.20
2018-08-13T10:55:14.027Z,3.15
2018-08-13T10:57:43.155Z,3.65
2018-08-13T11:00:13.524Z,5.28
2018-08-13T11:02:42.162Z,5.33
2018-08-13T11:05:12.507Z,4.67
2018-08-13T11:07:42.738Z,5.78
2018-08-13T11:10:14.580Z,5.37
2018-08-13T11:12:43.637Z,4.25
2018-08-13T11:15:17.642Z,4.05
2018-08-13T11:17:46.715Z,3.98
2018-08-13T11:20:16.407Z,3.83
2018-08-13T11:22:45.399Z,4.60
2018-08-13T11:25:16.564Z,3.90
2018-08-13T11:27:45.847Z,2.17
2018-08-13T11:30:16.340Z,1.70
2018-08-13T11:32:45.419Z,1.67
2018-08-13T11:35:15.240Z,3.45
2018-08-13T11:37:44.410Z,3.25
2018-08-13T11:40:15.198Z,1.57
2018-08-13T11:42:44.414Z,5.15
2018-08-13T11:45:13.260Z,3.85
2018-08-13T11:47:42.733Z,3.25
2018-08-13T11:50:15.646Z,2.52
2018-08-13T11:52:45.951Z,4.53
2018-08-13T11:55:15.042Z,4.33
2018-08-13T11:57:43.884Z,7.35
2018-08-13T12:00:13.387Z,5.92
2018-08-13T12:02:42.037Z,7.87
2018-08-13T12:05:12.592Z,6.97
2018-08-13T12:07:42.014Z,4.83
2018-08-13T12:10:11.861Z,6.75
2018-08-13T12:12:41.844Z,6.78
2018-08-13T12:15:11.652Z,6.08
2018-08-13T12:17:41.173Z,7.20
2018-08-13T12:20:13.546Z,4.40
2018-08-13T12:22:43.862Z,7.58
2018-08-13T12:25:16.869Z,12.25
2018-08-13T12:27:45.696Z,8.28
2018-08-13T12:30:14.893Z,6.92
2018-08-13T12:32:43.755Z,7.72
2018-08-13T12:35:12.885Z,7.58
2018-08-13T12:37:42.068Z,9.18
2018-08-13T12:40:11.142Z,8.38
2018-08-13T12:42:40.548Z,8.55
2018-08-13T12:45:12.143Z,10.10
2018-08-13T12:47:41.298Z,6.42
2018-08-13T12:50:12.137Z,7.30
2018-08-13T12:52:41.383Z,9.35
2018-08-13T12:55:10.961Z,10.03
2018-08-13T12:57:39.976Z,8.53
2018-08-13T13:00:11.086Z,9.40
2018-08-13T13:02:40.628Z,9.73
2018-08-13T13:05:10.837Z,10.60
2018-08-13T13:07:39.812Z,9.50
2018-08-13T13:10:11.400Z,13.38
2018-08-13T13:12:41.640Z,10.80
2018-08-13T13:15:14.199Z,13.03
2018-08-13T13:17:43.055Z,7.62
2018-08-13T13:20:16.634Z,7.83
2018-08-13T13:22:45.875Z,10.48
2018-08-13T13:25:15.062Z,8.83
2018-08-13T13:27:43.909Z,6.90
2018-08-13T13:30:14.521Z,7.58
2018-08-13T13:32:43.845Z,6.83
2018-08-13T13:35:14.254Z,7.20
2018-08-13T13:37:43.235Z,5.20
2018-08-13T13:40:14.559Z,5.58
2018-08-13T13:42:43.671Z,4.47
2018-08-13T13:45:13.225Z,6.80
2018-08-13T13:47:42.317Z,9.05
2018-08-13T13:50:13.483Z,7.10
2018-08-13T13:52:42.880Z,7.50
2018-08-13T13:55:11.888Z,7.25
2018-08-13T13:57:40.775Z,5.95
2018-08-13T14:00:16.801Z,5.55
2018-08-13T14:02:47.365Z,7.90
2018-08-13T14:05:16.222Z,9.38
2018-08-13T14:07:45.153Z,5.30
2018-08-13T14:10:16.836Z,5.70
2018-08-13T14:12:46.235Z,6.17
2018-08-13T14:15:17.332Z,7.17
2018-08-13T14:17:46.320Z,6.78
2018-08-13T14:20:15.359Z,5.08
2018-08-13T14:22:44.273Z,5.97
2018-08-13T14:25:14.071Z,6.10
2018-08-13T14:27:42.912Z,6.17
2018-08-13T14:30:14.946Z,5.28
2018-08-13T14:32:44.134Z,6.40
2018-08-13T14:35:13.339Z,5.97
2018-08-13T14:37:42.462Z,7.53
2018-08-13T14:40:12.350Z,5.53
2018-08-13T14:42:41.671Z,6.20
2018-08-13T14:45:12.478Z,6.05
2018-08-13T14:47:43.354Z,6.75
2018-08-13T14:50:12.745Z,4.75
2018-08-13T14:52:44.302Z,6.20
2018-08-13T14:55:15.367Z,6.62
2018-08-13T14:57:44.191Z,4.58
2018-08-13T15:00:18.097Z,4.15
2018-08-13T15:02:47.147Z,3.33
2018-08-13T15:05:16.294Z,3.77
2018-08-13T15:07:45.141Z,4.28
2018-08-13T15:10:16.067Z,4.67
2018-08-13T15:12:45.300Z,4.40
2018-08-13T15:15:14.349Z,4.35
2018-08-13T15:17:43.281Z,4.85
2018-08-13T15:20:16.541Z,3.62
2018-08-13T15:22:46.009Z,2.20
2018-08-13T15:25:14.966Z,1.92
2018-08-13T15:27:43.944Z,3.90
2018-08-13T15:30:15.543Z,2.95
2018-08-13T15:32:45.580Z,4.87
2018-08-13T15:35:14.476Z,4.28
2018-08-13T15:37:44.610Z,3.70
2018-08-13T15:40:13.841Z,3.77
2018-08-13T15:42:42.749Z,4.28
2018-08-13T15:45:14.450Z,3.80
2018-08-13T15:47:43.366Z,4.03
2018-08-13T15:50:14.046Z,3.87
2018-08-13T15:52:43.852Z,4.22
2018-08-13T15:55:13.628Z,4.97
2018-08-13T15:57:43.077Z,4.65
2018-08-13T16:00:15.177Z,4.45
2018-08-13T16:02:43.900Z,4.47
2018-08-13T16:05:12.981Z,2.25
2018-08-13T16:07:41.897Z,3.02
2018-08-13T16:10:12.623Z,2.87
2018-08-13T16:12:42.027Z,3.45
2018-08-13T16:15:11.070Z,3.45
2018-08-13T16:17:41.258Z,3.20
2018-08-13T16:20:14.647Z,4.10
2018-08-13T16:22:44.669Z,3.95
2018-08-13T16:25:13.952Z,3.87
2018-08-13T16:27:43.085Z,3.33
2018-08-13T16:30:21.785Z,3.02
2018-08-13T16:32:50.865Z,3.40
2018-08-13T16:35:20.393Z,2.95
2018-08-13T16:37:49.539Z,4.78
2018-08-13T16:40:19.116Z,3.08
2018-08-13T16:42:48.251Z,3.42
2018-08-13T16:45:18.180Z,4.35
2018-08-13T16:47:47.062Z,3.70
2018-08-13T16:50:22.230Z,2.92
2018-08-13T16:52:52.036Z,5.72
2018-08-13T16:55:20.944Z,5.08
2018-08-13T16:57:50.626Z,4.97
2018-08-13T17:00:21.321Z,4.78
2018-08-13T17:02:49.998Z,4.30
2018-08-13T17:05:19.068Z,4.67
2018-08-13T17:07:47.973Z,4.05
2018-08-13T17:10:19.449Z,5.03
2018-08-13T17:12:48.890Z,5.05
2018-08-13T17:15:17.767Z,7.95
2018-08-13T17:17:48.392Z,6.28
2018-08-13T17:20:22.108Z,6.72
2018-08-13T17:22:51.066Z,7.08
2018-08-13T17:25:19.936Z,5.87
2018-08-13T17:27:49.126Z,4.92
2018-08-13T17:30:20.526Z,5.62
2018-08-13T17:32:50.597Z,5.87
2018-08-13T17:35:25.164Z,5.30
2018-08-13T17:37:54.055Z,6.58
2018-08-13T17:40:23.865Z,7.30
2018-08-13T17:42:53.989Z,4.47
2018-08-13T17:45:23.424Z,5.08
2018-08-13T17:47:52.292Z,7.28
2018-08-13T17:50:21.692Z,5.75
2018-08-13T17:52:50.569Z,7.05
2018-08-13T17:55:19.611Z,8.58
2018-08-13T17:57:48.493Z,7.22
2018-08-13T18:00:18.735Z,7.90
2018-08-13T18:02:47.351Z,10.17
2018-08-13T18:05:18.381Z,7.47
2018-08-13T18:07:48.276Z,9.43
2018-08-13T18:10:26.681Z,7.47
2018-08-13T18:12:56.837Z,9.63
2018-08-13T18:15:25.757Z,8.00
2018-08-13T18:17:54.845Z,9.05
2018-08-13T18:20:23.728Z,7.33
2018-08-13T18:22:52.939Z,7.08
2018-08-13T18:25:21.860Z,6.50
2018-08-13T18:27:51.368Z,7.42
2018-08-13T18:30:22.732Z,7.25
2018-08-13T18:32:52.085Z,7.28
2018-08-13T18:35:21.228Z,7.28
2018-08-13T18:37:50.127Z,7.95
2018-08-13T18:40:50.602Z,8.33
2018-08-13T18:43:19.489Z,8.65
2018-08-13T18:45:49.128Z,7.10
2018-08-13T18:48:18.264Z,7.78
2018-08-13T18:50:48.619Z,5.85
2018-08-13T18:53:18.101Z,7.53
2018-08-13T18:55:48.080Z,7.60
2018-08-13T18:58:16.996Z,7.95
2018-08-13T19:00:50.923Z,6.67
2018-08-13T19:03:19.995Z,9.18
2018-08-13T19:05:48.895Z,7.83
2018-08-13T19:08:17.794Z,7.12
2018-08-13T19:10:46.796Z,7.10
2018-08-13T19:13:15.739Z,8.35
2018-08-13T19:15:44.665Z,7.30
2018-08-13T19:18:13.559Z,7.72
2018-08-13T19:20:42.726Z,7.58
2018-08-13T19:23:11.811Z,7.20
2018-08-13T19:25:40.709Z,8.18
2018-08-13T19:28:09.618Z,7.95
2018-08-13T19:30:38.863Z,7.78
2018-08-13T19:33:07.767Z,8.83
2018-08-13T19:35:36.625Z,9.60
2018-08-13T19:38:06.967Z,9.55
2018-08-13T19:40:35.839Z,9.43
2018-08-13T19:43:04.750Z,7.28
2018-08-13T19:45:33.814Z,8.43
2018-08-13T19:48:03.047Z,9.63
2018-08-13T19:50:31.963Z,8.00
2018-08-13T19:53:01.349Z,8.28
2018-08-13T19:55:30.230Z,9.80
2018-08-13T19:57:59.291Z,9.28
2018-08-13T20:00:29.383Z,8.00
2018-08-13T20:02:57.955Z,10.07
2018-08-13T20:05:28.159Z,8.80
2018-08-13T20:07:57.197Z,8.40
2018-08-13T20:10:26.345Z,9.98
2018-08-13T20:12:55.187Z,8.93
2018-08-13T20:15:24.051Z,11.63
2018-08-13T20:17:52.883Z,8.30
2018-08-13T20:20:22.124Z,10.38
2018-08-13T20:22:51.559Z,11.10
2018-08-13T20:25:21.081Z,11.05
2018-08-13T20:27:50.617Z,10.10
2018-08-13T20:30:21.057Z,8.28
2018-08-13T20:32:51.446Z,9.28
2018-08-13T20:35:20.798Z,8.23
2018-08-13T20:37:49.737Z,11.57
2018-08-13T20:40:20.649Z,10.98
2018-08-13T20:42:50.268Z,10.10
2018-08-13T20:45:20.823Z,10.82
2018-08-13T20:47:49.875Z,10.95
2018-08-13T20:50:24.522Z,11.05
2018-08-13T20:52:54.104Z,10.78
2018-08-13T20:55:25.485Z,12.68
2018-08-13T20:57:54.376Z,8.68
2018-08-13T21:00:24.844Z,9.63
2018-08-13T21:02:53.974Z,8.73
2018-08-13T21:05:22.853Z,11.48
2018-08-13T21:07:52.281Z,9.43
2018-08-13T21:10:22.619Z,11.28
2018-08-13T21:12:51.656Z,11.88
2018-08-13T21:15:20.660Z,10.63
2018-08-13T21:17:49.535Z,15.32
2018-08-13T21:20:19.751Z,14.70
2018-08-13T21:22:48.676Z,12.50
2018-08-13T21:25:17.678Z,14.45
2018-08-13T21:27:46.982Z,13.48
2018-08-13T21:30:16.306Z,16.82
2018-08-13T21:32:45.764Z,14.40
2018-08-13T21:35:17.788Z,12.23
2018-08-13T21:37:47.393Z,12.93
2018-08-13T21:40:16.348Z,12.40
2018-08-13T21:42:45.603Z,13.15
2018-08-13T21:45:14.664Z,13.00
2018-08-13T21:47:43.556Z,12.90
2018-08-13T21:50:15.862Z,14.45
2018-08-13T21:52:45.309Z,11.85
2018-08-13T21:55:14.427Z,14.05
2018-08-13T21:57:43.301Z,10.68
2018-08-13T22:00:19.907Z,9.90
2018-08-13T22:02:48.977Z,12.00
2018-08-13T22:05:17.850Z,10.35
2018-08-13T22:07:47.025Z,9.18
2018-08-13T22:10:15.980Z,8.58
2018-08-13T22:12:44.851Z,10.28
2018-08-13T22:15:23.822Z,8.58
2018-08-13T22:17:52.964Z,8.50
2018-08-13T22:20:22.148Z,6.85
2018-08-13T22:22:51.060Z,7.97
2018-08-13T22:25:22.889Z,6.60
2018-08-13T22:27:52.169Z,8.55
2018-08-13T22:30:21.194Z,7.87
2018-08-13T22:32:50.099Z,7.67
2018-08-13T22:35:18.902Z,6.45
2018-08-13T22:37:47.756Z,6.20
2018-08-13T22:40:18.436Z,8.08
2018-08-13T22:42:47.547Z,7.28
2018-08-13T22:45:20.714Z,7.83
2018-08-13T22:47:49.608Z,7.25
2018-08-13T22:50:18.468Z,8.28
2018-08-13T22:52:47.347Z,7.80
2018-08-13T22:55:17.755Z,6.30
2018-08-13T22:57:46.671Z,8.20
2018-08-13T23:00:16.615Z,7.47
2018-08-13T23:02:46.231Z,5.53
2018-08-13T23:05:16.755Z,6.12
2018-08-13T23:07:45.602Z,5.37
2018-08-13T23:10:19.076Z,5.12
2018-08-13T23:12:49.410Z,4.35
2018-08-13T23:15:18.485Z,7.15
2018-08-13T23:17:47.465Z,5.53
2018-08-13T23:20:22.036Z,4.37
2018-08-13T23:22:55.053Z,5.15
2018-08-13T23:25:23.938Z,5.28
2018-08-13T23:27:53.900Z,5.00
2018-08-13T23:30:22.982Z,4.97
2018-08-13T23:32:53.270Z,3.77
2018-08-13T23:35:23.068Z,3.65
2018-08-13T23:37:52.534Z,3.33
2018-08-13T23:40:21.661Z,5.87
2018-08-13T23:42:50.816Z,4.45
2018-08-13T23:45:23.490Z,5.12
2018-08-13T23:47:52.351Z,4.45
2018-08-13T23:50:22.377Z,2.98
2018-08-13T23:52:52.513Z,3.47
2018-08-13T23:55:24.745Z,3.70
2018-08-13T23:57:53.803Z,3.90
